This is the latest recevied weather packets stored in our database for station/object W4SMH. If no packets are shown the sender has not sent any weather packets the latest 10 day(s).
| Time | Temp. | Humidity | Pressure | Rain* | Wind** | Luminosity | Snow |
|---|---|---|---|---|---|---|---|
| 1777743789 | 3.33° C | 88% | 1013.8 hPa | 0 mm | - | 0 W/m² | - |
| 1777743744 | 11.67° C | 48% | 1016.9 hPa | 0 mm | - | 1162 W/m² | - |
| 1777743465 | 11.67° C | 47% | 1017 hPa | 0 mm | - | 278 W/m² | - |
| 1777743284 | 11.67° C | 48% | 1017 hPa | 0 mm | - | 422 W/m² | - |
| 1777742545 | 12.22° C | 46% | 1017.1 hPa | 0 mm | - | 301 W/m² | - |
| 1777742326 | 12.78° C | 47% | 1017.1 hPa | 0 mm | - | 1197 W/m² | - |
| 1777741543 | 12.78° C | 52% | 1017.3 hPa | 0 mm | - | 1169 W/m² | - |
| 1777741516 | 12.78° C | 54% | 1017.3 hPa | 0 mm | - | 1169 W/m² | - |
| 1777741329 | 3.33° C | 88% | 1013.7 hPa | 0 mm | - | 0 W/m² | - |
| 1777741270 | 12.78° C | 50% | 1017.3 hPa | 0 mm | - | 237 W/m² | - |
| 1777741228 | 12.78° C | 50% | 1017.3 hPa | 0 mm | - | 237 W/m² | - |
| 1777741198 | 12.78° C | 51% | 1017.3 hPa | 0 mm | - | 221 W/m² | - |
| 1777741117 | 12.78° C | 48% | 1017.3 hPa | 0 mm | - | 1158 W/m² | - |
| 1777740534 | 3.33° C | 88% | 1013.8 hPa | 0 mm | - | 0 W/m² | - |
| 1777740526 | 3.33° C | 88% | 1013.8 hPa | 0.25 mm | - | 0 W/m² | - |
| 1777740521 | 3.33° C | 88% | 1013.7 hPa | 0.25 mm | - | 0 W/m² | - |
| 1777740504 | 12.22° C | 47% | 1017.3 hPa | 0 mm | - | 1114 W/m² | - |
| 1777740367 | 12.22° C | 50% | 1017.4 hPa | 0 mm | - | 1030 W/m² | - |
| 1777739500 | 11.67° C | 51% | 1017.4 hPa | 0 mm | - | 944 W/m² | - |
| 1777738964 | 11.11° C | 53% | 1017.6 hPa | 0 mm | - | 921 W/m² | - |
| 1777738925 | 11.11° C | 54% | 1017.5 hPa | 0 mm | - | 911 W/m² | - |
| 1777738898 | 11.11° C | 52% | 1017.4 hPa | 0 mm | - | 909 W/m² | - |
| 1777738371 | 11.11° C | 52% | 1017.5 hPa | 0 mm | - | 896 W/m² | - |
| 1777738206 | 4.44° C | 85% | 1013.4 hPa | 0 mm | - | 0 W/m² | - |
| 1777738147 | 11.11° C | 55% | 1017.6 hPa | 0 mm | - | 889 W/m² | - |
* Rain latest hour (hover to see other rain measurements)
** Current wind speed in m/s (hover to see current wind gust speed)